Time;durP1;ratioP1;P1;durP2;ratioP2;P2;SDS_P1;SDS_P2;PMS_P1;PMS_P2;Temp;Humidity;BMP_temperature;BMP_pressure;BME280_temperature;BME280_humidity;BME280_pressure;Samples;Min_cycle;Max_cycle;Signal;HPM_P1;HPM_P2
2022/09/12 00:00:05;;;;;;;4.33;3.00;;;13.70;99.90;;;;;;5056781;28;20226;-68
2022/09/12 00:02:31;;;;;;;2.63;2.43;;;13.70;99.90;;;;;;5060475;28;20286;-67
2022/09/12 00:04:56;;;;;;;3.03;2.83;;;13.60;99.90;;;;;;5054924;28;20645;-68
2022/09/12 00:07:22;;;;;;;2.53;2.33;;;13.60;99.90;;;;;;5053089;28;20194;-67
2022/09/12 00:09:47;;;;;;;4.43;2.87;;;13.50;99.90;;;;;;5051636;28;20293;-68
2022/09/12 00:12:13;;;;;;;4.87;3.30;;;13.40;99.90;;;;;;5051206;28;20577;-68
2022/09/12 00:14:38;;;;;;;3.50;3.20;;;13.40;99.90;;;;;;5050419;28;20301;-67
2022/09/12 00:17:04;;;;;;;2.70;2.50;;;13.40;99.90;;;;;;5049276;28;20237;-66
2022/09/12 00:19:29;;;;;;;3.17;2.57;;;13.40;99.90;;;;;;5053153;28;20677;-68
2022/09/12 00:21:55;;;;;;;3.83;2.90;;;13.30;99.90;;;;;;5052743;28;20190;-68
2022/09/12 00:24:21;;;;;;;3.00;2.80;;;13.30;99.90;;;;;;5054032;28;20202;-67
2022/09/12 00:26:47;;;;;;;4.67;3.57;;;13.30;99.90;;;;;;5056396;28;20206;-67
2022/09/12 00:29:18;;;;;;;4.97;3.00;;;13.20;99.90;;;;;;5048157;28;20681;-67
2022/09/12 00:31:44;;;;;;;3.77;2.90;;;13.20;99.90;;;;;;5049055;28;20214;-69
2022/09/12 00:34:09;;;;;;;3.17;2.90;;;13.20;99.90;;;;;;5055513;28;20275;-69
2022/09/12 00:36:35;;;;;;;4.60;2.93;;;13.10;99.90;;;;;;5054186;28;20195;-68
2022/09/12 00:39:03;;;;;;;4.60;2.73;;;13.10;99.90;;;;;;5055756;28;20628;-69
2022/09/12 00:41:30;;;;;;;3.63;3.33;;;13.10;99.90;;;;;;5054350;28;20217;-68
2022/09/12 00:44:01;;;;;;;3.33;3.13;;;13.00;99.90;;;;;;5053889;28;20174;-67
2022/09/12 00:46:49;;;;;;;3.50;3.20;;;13.00;99.90;;;;;;5050989;28;20245;-67
2022/09/12 00:49:26;;;;;;;3.20;2.93;;;13.00;99.90;;;;;;5054287;28;20293;-68
2022/09/12 00:52:02;;;;;;;3.23;2.93;;;13.00;99.90;;;;;;5053252;28;20201;-67
2022/09/12 00:54:33;;;;;;;4.93;3.63;;;13.00;99.90;;;;;;5055007;28;20212;-68
2022/09/12 00:57:03;;;;;;;2.87;2.67;;;13.00;99.90;;;;;;5052709;28;20297;-68
2022/09/12 00:59:34;;;;;;;3.17;2.87;;;12.90;99.90;;;;;;5054815;28;20880;-68
2022/09/12 01:01:59;;;;;;;4.03;3.13;;;12.90;99.90;;;;;;5051290;28;20209;-68
2022/09/12 01:04:27;;;;;;;5.43;3.27;;;12.90;99.90;;;;;;5055144;28;20178;-67
2022/09/12 01:06:54;;;;;;;3.10;2.90;;;12.90;99.90;;;;;;5054566;28;20202;-69
2022/09/12 01:09:21;;;;;;;3.47;3.27;;;12.90;99.90;;;;;;5058561;28;20189;-68
2022/09/12 01:11:49;;;;;;;3.53;3.20;;;12.90;99.90;;;;;;5057024;28;20340;-67
2022/09/12 01:14:16;;;;;;;3.97;3.07;;;12.90;99.90;;;;;;5054968;28;20209;-67
2022/09/12 01:16:43;;;;;;;3.70;3.10;;;12.90;99.90;;;;;;5055548;28;20209;-67
2022/09/12 01:19:25;;;;;;;3.50;3.20;;;12.80;99.90;;;;;;5057389;28;20247;-67
2022/09/12 01:21:54;;;;;;;4.17;3.87;;;12.80;99.90;;;;;;5055536;28;20661;-69
2022/09/12 01:24:35;;;;;;;4.00;3.70;;;12.80;99.90;;;;;;5058916;28;20177;-69
2022/09/12 01:27:25;;;;;;;4.93;4.30;;;12.70;99.90;;;;;;5055630;28;20206;-69
2022/09/12 01:30:28;;;;;;;4.07;3.67;;;12.70;99.90;;;;;;5058772;28;20190;-68
2022/09/12 01:33:17;;;;;;;4.10;3.73;;;12.70;99.90;;;;;;5057304;28;20210;-67
2022/09/12 01:36:02;;;;;;;3.97;3.63;;;12.60;99.90;;;;;;5057723;28;20220;-63
2022/09/12 01:38:43;;;;;;;4.10;3.80;;;12.60;99.90;;;;;;5055978;28;20199;-62
2022/09/12 01:41:27;;;;;;;4.00;3.47;;;12.60;99.90;;;;;;5057471;28;20204;-62
2022/09/12 01:44:19;;;;;;;4.43;3.97;;;12.60;99.90;;;;;;5057643;28;20185;-62
2022/09/12 01:46:53;;;;;;;8.97;3.63;;;12.50;99.90;;;;;;5055562;28;20214;-62
2022/09/12 01:49:24;;;;;;;6.03;4.10;;;12.50;99.90;;;;;;5057781;28;20189;-62
2022/09/12 01:51:58;;;;;;;3.90;3.60;;;12.50;99.90;;;;;;5056102;28;20215;-63
2022/09/12 01:54:38;;;;;;;4.50;4.10;;;12.50;99.90;;;;;;5057080;28;20214;-63
2022/09/12 01:57:12;;;;;;;3.70;3.40;;;12.40;99.90;;;;;;5054464;28;20200;-62
2022/09/12 01:59:44;;;;;;;4.63;3.83;;;12.40;99.90;;;;;;5059708;28;20246;-63
2022/09/12 02:02:15;;;;;;;3.73;3.43;;;12.40;99.90;;;;;;5046100;28;20272;-63
2022/09/12 02:04:51;;;;;;;3.97;3.67;;;12.40;99.90;;;;;;5063010;28;20657;-63
2022/09/12 02:07:37;;;;;;;4.53;4.13;;;12.40;99.90;;;;;;5054362;28;20205;-63
2022/09/12 02:10:11;;;;;;;4.53;4.23;;;12.40;99.90;;;;;;5063930;28;20194;-64
2022/09/12 02:12:42;;;;;;;4.07;3.77;;;12.40;99.90;;;;;;5055098;28;20256;-64
2022/09/12 02:15:09;;;;;;;5.30;3.80;;;12.30;99.90;;;;;;5064296;28;21027;-64
2022/09/12 02:17:39;;;;;;;4.27;3.90;;;12.30;99.90;;;;;;5054580;28;20220;-64
2022/09/12 02:20:19;;;;;;;4.20;3.83;;;12.40;99.90;;;;;;5056836;28;20182;-64
2022/09/12 02:22:47;;;;;;;6.30;4.20;;;12.30;99.90;;;;;;5055081;28;20198;-64
2022/09/12 02:25:17;;;;;;;5.07;4.60;;;12.30;99.90;;;;;;5058786;28;20198;-63
2022/09/12 02:27:54;;;;;;;4.60;4.27;;;12.30;99.90;;;;;;5060530;28;20243;-65
2022/09/12 02:30:20;;;;;;;5.20;4.33;;;12.30;99.90;;;;;;5063905;28;20644;-64
2022/09/12 02:33:00;;;;;;;4.03;3.73;;;12.30;99.90;;;;;;5056030;28;20304;-64
2022/09/12 02:35:53;;;;;;;5.00;4.60;;;12.20;99.90;;;;;;5057441;28;20218;-64
2022/09/12 02:38:27;;;;;;;5.03;4.53;;;12.30;99.90;;;;;;5044292;28;20214;-64
2022/09/12 02:40:53;;;;;;;4.47;4.17;;;12.20;99.90;;;;;;5045642;28;20697;-64
2022/09/12 02:43:18;;;;;;;4.97;4.57;;;12.20;99.90;;;;;;5041552;28;20565;-64
2022/09/12 02:45:44;;;;;;;5.47;4.90;;;12.20;99.90;;;;;;5051945;28;20664;-64
2022/09/12 02:48:24;;;;;;;4.80;4.40;;;12.20;99.90;;;;;;5060170;28;20205;-64
2022/09/12 02:50:50;;;;;;;5.17;4.77;;;12.20;99.90;;;;;;5055119;28;20215;-64
2022/09/12 02:53:17;;;;;;;5.80;4.73;;;12.10;99.90;;;;;;5048725;28;20289;-64
2022/09/12 02:55:43;;;;;;;5.30;4.80;;;12.10;99.90;;;;;;5054003;28;20199;-64
2022/09/12 02:58:13;;;;;;;6.60;5.50;;;12.10;99.90;;;;;;5061288;28;20258;-64
2022/09/12 03:01:20;;;;;;;5.20;4.53;;;12.10;99.90;;;;;;5045397;28;20183;-64
2022/09/12 03:04:27;;;;;;;4.87;4.57;;;12.10;99.90;;;;;;5051885;28;20241;-63
2022/09/12 03:07:23;;;;;;;5.03;4.63;;;12.10;99.90;;;;;;5053058;28;20660;-63
2022/09/12 03:10:12;;;;;;;5.53;5.03;;;12.10;99.90;;;;;;5065207;28;20209;-63
2022/09/12 03:13:15;;;;;;;5.67;5.10;;;12.10;99.90;;;;;;5054904;28;20744;-63
2022/09/12 03:16:03;;;;;;;6.10;5.50;;;12.10;99.90;;;;;;5059453;28;20209;-64
2022/09/12 03:18:40;;;;;;;6.00;5.40;;;12.10;99.90;;;;;;5052072;28;20222;-63
2022/09/12 03:21:27;;;;;;;5.60;5.10;;;12.10;99.90;;;;;;5056970;28;20277;-64
2022/09/12 03:24:10;;;;;;;9.50;5.33;;;12.00;99.90;;;;;;5043007;28;20203;-66
2022/09/12 03:26:44;;;;;;;5.43;4.93;;;12.00;99.90;;;;;;5048498;28;20252;-66
2022/09/12 03:29:12;;;;;;;4.93;4.53;;;12.00;99.90;;;;;;5049079;28;20529;-67
2022/09/12 03:31:51;;;;;;;5.13;4.73;;;12.00;99.90;;;;;;5064458;28;20362;-68
2022/09/12 03:34:17;;;;;;;5.37;4.97;;;12.00;99.90;;;;;;5050066;28;20218;-69
2022/09/12 03:36:43;;;;;;;5.10;4.57;;;11.90;99.90;;;;;;5051724;28;20193;-68
2022/09/12 03:39:08;;;;;;;5.17;4.73;;;11.90;99.90;;;;;;5053154;28;20187;-68
2022/09/12 03:41:33;;;;;;;4.97;4.67;;;11.90;99.90;;;;;;5048272;28;20220;-68
2022/09/12 03:43:59;;;;;;;5.60;5.10;;;11.90;99.90;;;;;;5055857;28;20208;-68
2022/09/12 03:46:24;;;;;;;4.87;4.47;;;11.90;99.90;;;;;;5059138;28;20217;-66
2022/09/12 03:48:50;;;;;;;5.70;5.20;;;11.90;99.90;;;;;;5050884;28;20564;-66
2022/09/12 03:51:15;;;;;;;5.57;4.93;;;11.90;99.90;;;;;;5046870;28;20195;-66
2022/09/12 03:53:41;;;;;;;5.27;4.77;;;11.80;99.90;;;;;;5059757;28;20560;-66
2022/09/12 03:56:08;;;;;;;5.57;5.13;;;11.80;99.90;;;;;;5060637;28;20187;-66
2022/09/12 03:58:35;;;;;;;6.63;6.03;;;11.80;99.90;;;;;;5056986;28;20214;-66
2022/09/12 04:01:13;;;;;;;6.23;5.63;;;11.80;99.90;;;;;;5061271;28;20228;-65
2022/09/12 04:03:39;;;;;;;6.80;6.17;;;11.80;99.90;;;;;;5058685;28;20215;-65
2022/09/12 04:06:06;;;;;;;6.70;6.10;;;11.80;99.90;;;;;;5056858;28;20254;-65
2022/09/12 04:08:32;;;;;;;7.43;6.83;;;11.80;99.90;;;;;;5061814;28;20273;-66
2022/09/12 04:11:06;;;;;;;6.93;6.23;;;11.80;99.90;;;;;;5055267;28;20283;-61
2022/09/12 04:13:33;;;;;;;6.43;5.83;;;11.70;99.90;;;;;;5053286;28;20715;-61
2022/09/12 04:15:59;;;;;;;6.83;6.23;;;11.70;99.90;;;;;;5053106;28;20529;-61
2022/09/12 04:18:25;;;;;;;7.37;6.07;;;11.70;99.90;;;;;;5049908;28;20922;-61
2022/09/12 04:20:50;;;;;;;5.90;5.40;;;11.70;99.90;;;;;;5051656;28;20203;-61
2022/09/12 04:23:16;;;;;;;6.33;5.83;;;11.70;99.90;;;;;;5054399;28;20193;-62
2022/09/12 04:25:41;;;;;;;7.00;6.40;;;11.70;99.90;;;;;;5057285;28;20198;-62
2022/09/12 04:28:07;;;;;;;6.33;5.73;;;11.70;99.90;;;;;;5051285;28;20252;-62
2022/09/12 04:30:33;;;;;;;7.83;6.43;;;11.70;99.90;;;;;;5052710;28;20194;-62
2022/09/12 04:32:59;;;;;;;7.13;6.50;;;11.70;99.90;;;;;;5058431;28;20717;-62
2022/09/12 04:35:25;;;;;;;6.47;5.87;;;11.60;99.90;;;;;;5057306;28;20221;-62
2022/09/12 04:37:50;;;;;;;7.37;6.77;;;11.60;99.90;;;;;;5053720;28;20241;-62
2022/09/12 04:40:16;;;;;;;8.63;7.73;;;11.60;99.90;;;;;;5055252;28;20727;-62
2022/09/12 04:42:42;;;;;;;8.73;7.83;;;11.60;99.90;;;;;;5054181;28;20334;-62
2022/09/12 04:45:07;;;;;;;7.50;6.90;;;11.60;99.90;;;;;;5060964;28;20658;-62
2022/09/12 04:47:33;;;;;;;9.03;7.47;;;11.60;99.90;;;;;;5056888;28;20265;-62
2022/09/12 04:49:58;;;;;;;8.30;7.40;;;11.60;99.90;;;;;;5048384;28;20709;-62
2022/09/12 04:52:24;;;;;;;7.80;7.00;;;11.60;99.90;;;;;;5065489;28;20221;-62
2022/09/12 04:54:49;;;;;;;8.83;7.93;;;11.60;99.90;;;;;;5054745;28;20207;-61
2022/09/12 04:57:15;;;;;;;8.53;7.67;;;11.60;99.90;;;;;;5051111;28;20188;-61
2022/09/12 04:59:40;;;;;;;8.40;7.60;;;11.60;99.90;;;;;;5058261;28;20230;-61
2022/09/12 05:02:06;;;;;;;8.50;7.70;;;11.60;99.90;;;;;;5055025;28;20245;-61
2022/09/12 05:04:31;;;;;;;10.00;8.60;;;11.60;99.90;;;;;;5054784;28;20185;-61
2022/09/12 05:06:57;;;;;;;9.50;8.60;;;11.60;99.90;;;;;;5054852;28;20193;-61
2022/09/12 05:09:23;;;;;;;8.67;7.87;;;11.60;99.90;;;;;;5056412;28;20202;-61
2022/09/12 05:11:48;;;;;;;10.30;9.13;;;11.60;99.90;;;;;;5047670;28;20210;-62
2022/09/12 05:14:14;;;;;;;9.80;8.80;;;11.60;99.90;;;;;;5064935;28;20217;-62
2022/09/12 05:16:40;;;;;;;10.13;8.40;;;11.70;99.90;;;;;;5064429;28;20191;-61
2022/09/12 05:19:06;;;;;;;10.73;9.73;;;11.70;99.90;;;;;;5056178;28;20202;-62
2022/09/12 05:21:31;;;;;;;16.67;9.47;;;11.70;99.90;;;;;;5059792;28;20259;-62
2022/09/12 05:24:00;;;;;;;9.70;8.50;;;11.80;99.90;;;;;;5061202;28;20205;-63
2022/09/12 05:26:26;;;;;;;9.53;8.20;;;11.80;99.90;;;;;;5055729;28;20198;-62
2022/09/12 05:28:53;;;;;;;10.37;8.10;;;11.80;99.90;;;;;;5052077;28;20214;-62
2022/09/12 05:31:21;;;;;;;10.13;7.87;;;11.80;99.90;;;;;;5052849;28;20194;-62
2022/09/12 05:33:48;;;;;;;10.40;8.80;;;11.90;99.90;;;;;;5046338;28;20222;-61
2022/09/12 05:36:19;;;;;;;11.07;9.87;;;11.90;99.90;;;;;;5050014;28;20190;-63
2022/09/12 05:38:46;;;;;;;10.33;9.33;;;11.90;99.90;;;;;;5054623;28;20677;-63
2022/09/12 05:41:14;;;;;;;11.47;10.40;;;11.90;99.90;;;;;;5058016;28;20201;-63
2022/09/12 05:43:41;;;;;;;11.67;9.87;;;12.00;99.90;;;;;;5050592;28;20236;-63
2022/09/12 05:46:09;;;;;;;10.60;9.53;;;12.00;99.90;;;;;;5057766;28;20201;-63
2022/09/12 05:48:36;;;;;;;12.37;10.50;;;12.00;99.90;;;;;;5056300;28;20198;-63
2022/09/12 05:51:07;;;;;;;11.13;9.93;;;12.10;99.90;;;;;;5060104;28;20205;-63
2022/09/12 05:53:33;;;;;;;11.57;10.37;;;12.10;99.90;;;;;;5047531;28;20285;-63
2022/09/12 05:56:03;;;;;;;12.67;11.13;;;12.20;99.90;;;;;;5054352;28;20279;-63
2022/09/12 05:58:28;;;;;;;11.77;10.67;;;12.30;99.90;;;;;;5060199;28;20562;-64
2022/09/12 06:00:55;;;;;;;14.20;11.53;;;12.30;99.90;;;;;;5063739;28;20239;-64
2022/09/12 06:03:20;;;;;;;14.70;10.77;;;12.40;99.90;;;;;;5054419;28;20739;-63
2022/09/12 06:05:45;;;;;;;11.43;9.57;;;12.40;99.90;;;;;;5052740;28;20282;-64
2022/09/12 06:08:11;;;;;;;11.73;10.50;;;12.50;99.90;;;;;;5055355;28;20679;-64
2022/09/12 06:10:36;;;;;;;12.20;11.00;;;12.60;99.90;;;;;;5058907;28;20262;-64
2022/09/12 06:13:03;;;;;;;10.90;9.30;;;12.70;99.90;;;;;;5053636;28;20195;-64
2022/09/12 06:15:28;;;;;;;10.50;9.33;;;12.70;99.90;;;;;;5061885;28;20214;-64
2022/09/12 06:17:54;;;;;;;10.47;9.47;;;12.80;99.90;;;;;;5053359;28;20649;-61
2022/09/12 06:20:19;;;;;;;10.57;9.57;;;12.90;99.90;;;;;;5059475;28;20269;-64
2022/09/12 06:22:46;;;;;;;10.20;9.23;;;13.00;99.90;;;;;;5059027;28;20206;-64
2022/09/12 06:25:13;;;;;;;10.70;9.57;;;13.10;99.90;;;;;;5054761;28;20193;-63
2022/09/12 06:27:38;;;;;;;11.27;10.17;;;13.20;99.90;;;;;;5053420;28;20561;-61
2022/09/12 06:30:05;;;;;;;11.13;9.97;;;13.30;99.90;;;;;;5057704;28;20200;-65
2022/09/12 06:32:31;;;;;;;12.60;10.73;;;13.40;99.90;;;;;;5057605;28;20218;-65
2022/09/12 06:34:56;;;;;;;11.17;10.03;;;13.50;99.90;;;;;;5056725;28;20202;-65
2022/09/12 06:37:22;;;;;;;11.43;9.73;;;13.50;99.90;;;;;;5057493;28;20711;-66
2022/09/12 06:39:47;;;;;;;10.57;9.17;;;13.60;99.90;;;;;;5050268;28;21067;-65
2022/09/12 06:42:14;;;;;;;10.97;9.93;;;13.70;99.90;;;;;;5051236;28;20216;-65
2022/09/12 06:44:40;;;;;;;10.30;8.70;;;13.90;99.90;;;;;;5054977;28;20756;-65
2022/09/12 06:47:06;;;;;;;10.90;9.80;;;14.00;99.90;;;;;;5049248;28;20197;-65
2022/09/12 06:49:31;;;;;;;12.83;9.83;;;14.10;99.90;;;;;;5056555;28;20248;-65
2022/09/12 06:51:57;;;;;;;9.80;8.80;;;14.20;99.90;;;;;;5054774;28;20195;-67
2022/09/12 06:54:22;;;;;;;12.63;9.20;;;14.30;99.90;;;;;;5057550;28;20211;-67
2022/09/12 06:56:47;;;;;;;8.97;8.07;;;14.40;99.90;;;;;;5035856;28;20691;-67
2022/09/12 06:59:13;;;;;;;8.23;7.43;;;14.50;99.90;;;;;;5049349;28;20325;-65
2022/09/12 07:01:40;;;;;;;8.33;7.50;;;14.50;99.90;;;;;;5052739;28;20199;-66
2022/09/12 07:04:06;;;;;;;8.13;7.30;;;14.70;99.90;;;;;;5052485;28;20221;-66
2022/09/12 07:06:38;;;;;;;12.20;8.67;;;14.80;99.90;;;;;;5061270;28;20221;-66
2022/09/12 07:09:06;;;;;;;10.33;7.60;;;14.90;99.90;;;;;;5056797;28;20313;-65
2022/09/12 07:11:35;;;;;;;11.33;8.33;;;15.00;99.90;;;;;;5057112;28;20219;-66
2022/09/12 07:14:02;;;;;;;10.83;8.00;;;15.10;99.90;;;;;;5046083;28;20233;-66
2022/09/12 07:16:28;;;;;;;8.83;6.70;;;15.20;99.90;;;;;;5053427;28;20333;-66
2022/09/12 07:18:56;;;;;;;9.97;7.27;;;15.30;99.90;;;;;;5052208;28;20283;-66
2022/09/12 07:21:22;;;;;;;7.23;6.53;;;15.40;99.90;;;;;;5051342;28;20193;-66
2022/09/12 07:23:48;;;;;;;6.20;5.60;;;15.40;99.90;;;;;;5045204;28;20207;-66
2022/09/12 07:26:15;;;;;;;9.00;7.77;;;15.40;99.90;;;;;;5050539;28;20445;-67
2022/09/12 07:28:41;;;;;;;6.67;5.97;;;15.40;99.90;;;;;;5056095;28;20209;-66
2022/09/12 07:31:09;;;;;;;7.50;6.20;;;15.50;99.90;;;;;;5061702;28;20198;-66
2022/09/12 07:33:36;;;;;;;6.13;5.63;;;15.70;99.90;;;;;;5052482;28;20241;-66
2022/09/12 07:36:07;;;;;;;6.97;6.33;;;15.80;99.90;;;;;;5048191;28;20192;-66
2022/09/12 07:38:33;;;;;;;7.50;6.00;;;15.90;99.90;;;;;;5059168;28;20200;-66
2022/09/12 07:41:00;;;;;;;6.37;5.40;;;15.90;99.90;;;;;;5053496;28;20210;-65
2022/09/12 07:43:26;;;;;;;6.27;5.37;;;15.90;99.90;;;;;;5050672;28;20205;-65
2022/09/12 07:45:55;;;;;;;6.00;5.50;;;15.90;99.90;;;;;;5054108;28;20273;-63
2022/09/12 07:48:21;;;;;;;4.93;4.50;;;16.00;99.90;;;;;;5052063;28;20198;-65
2022/09/12 07:50:55;;;;;;;5.47;3.80;;;16.10;99.90;;;;;;5060363;28;20179;-67
2022/09/12 07:53:21;;;;;;;4.93;4.40;;;16.20;99.90;;;;;;5050029;28;20190;-65
2022/09/12 07:55:53;;;;;;;6.07;5.00;;;16.20;99.90;;;;;;5052358;28;20676;-65
2022/09/12 07:58:18;;;;;;;4.60;3.90;;;16.10;99.90;;;;;;5056483;28;20722;-65
2022/09/12 08:00:44;;;;;;;6.47;3.43;;;16.20;99.90;;;;;;5048507;28;20188;-65
2022/09/12 08:03:10;;;;;;;4.07;2.90;;;16.20;99.90;;;;;;5050732;28;20218;-66
2022/09/12 08:05:36;;;;;;;4.77;2.97;;;16.20;99.90;;;;;;5053481;28;20277;-65
2022/09/12 08:08:01;;;;;;;2.83;2.63;;;16.30;99.90;;;;;;5050096;28;20190;-66
2022/09/12 08:10:27;;;;;;;4.13;3.07;;;16.30;99.90;;;;;;5064986;28;20174;-65
2022/09/12 08:12:52;;;;;;;2.50;2.30;;;16.40;99.90;;;;;;5059331;28;20239;-65
2022/09/12 08:15:19;;;;;;;2.23;2.10;;;16.40;99.90;;;;;;5058164;28;20229;-66
2022/09/12 08:17:44;;;;;;;7.20;2.50;;;16.30;99.90;;;;;;5053108;28;20225;-65
2022/09/12 08:20:11;;;;;;;2.30;2.20;;;16.30;99.90;;;;;;5052714;28;20205;-66
2022/09/12 08:22:36;;;;;;;2.30;2.10;;;16.40;99.90;;;;;;5057262;28;20240;-66
2022/09/12 08:25:03;;;;;;;2.37;1.93;;;16.50;99.90;;;;;;5050265;28;20202;-66
2022/09/12 08:27:28;;;;;;;2.47;2.10;;;16.50;99.90;;;;;;5055839;28;20198;-65
2022/09/12 08:29:54;;;;;;;2.10;1.97;;;16.60;99.90;;;;;;5045850;28;20216;-66
2022/09/12 08:32:20;;;;;;;2.10;2.00;;;16.70;99.90;;;;;;5050187;28;20277;-65
2022/09/12 08:34:45;;;;;;;1.87;1.73;;;16.80;99.90;;;;;;5051646;28;20210;-66
2022/09/12 08:37:11;;;;;;;1.30;1.20;;;16.90;99.90;;;;;;5063995;28;20464;-65
2022/09/12 08:39:36;;;;;;;1.57;1.33;;;17.00;99.90;;;;;;5047496;28;20605;-66
2022/09/12 08:42:04;;;;;;;1.30;1.20;;;17.10;99.90;;;;;;5052472;28;20182;-65
2022/09/12 08:44:48;;;;;;;2.20;1.50;;;17.20;99.90;;;;;;5043240;28;20211;-65
2022/09/12 08:47:21;;;;;;;1.23;1.20;;;17.20;99.90;;;;;;4975320;28;20294;-67
2022/09/12 08:49:50;;;;;;;1.67;1.30;;;17.40;99.90;;;;;;5044355;28;20232;-67
2022/09/12 08:52:25;;;;;;;3.60;1.20;;;17.50;99.90;;;;;;5049482;28;20198;-66
2022/09/12 08:54:54;;;;;;;0.80;0.80;;;17.60;99.90;;;;;;5048461;28;20217;-67
2022/09/12 08:57:20;;;;;;;1.17;1.07;;;17.60;99.90;;;;;;5053919;28;20198;-66
2022/09/12 08:59:47;;;;;;;1.37;1.27;;;17.50;99.90;;;;;;5047706;28;20658;-67
2022/09/12 09:02:25;;;;;;;1.20;1.20;;;17.60;99.90;;;;;;5053062;28;20808;-68
2022/09/12 09:04:56;;;;;;;1.17;1.00;;;17.50;99.90;;;;;;5042694;28;20615;-66
2022/09/12 09:07:53;;;;;;;2.07;1.03;;;17.50;99.90;;;;;;5058124;28;20218;-65
2022/09/12 09:10:45;;;;;;;2.83;1.43;;;17.60;99.90;;;;;;5046877;28;20206;-67
2022/09/12 09:16:36;;;;;;;1.43;1.10;;;17.70;99.90;;;;;;5047694;28;20319;-65
2022/09/12 09:19:07;;;;;;;2.77;1.13;;;17.80;99.90;;;;;;5052133;28;20196;-65
2022/09/12 09:21:49;;;;;;;1.37;1.10;;;17.90;99.90;;;;;;5051072;28;20230;-65
2022/09/12 09:24:20;;;;;;;2.13;1.93;;;17.90;99.90;;;;;;5054808;28;20213;-65
2022/09/12 09:26:55;;;;;;;1.43;1.33;;;18.10;99.90;;;;;;5060622;28;20721;-67
2022/09/12 09:29:25;;;;;;;2.47;1.50;;;18.10;99.90;;;;;;5055895;28;20254;-72
2022/09/12 09:31:53;;;;;;;2.97;1.57;;;18.10;99.90;;;;;;5061929;28;20232;-69
2022/09/12 09:34:21;;;;;;;3.03;1.60;;;18.20;99.90;;;;;;5063534;28;20229;-68
2022/09/12 09:37:00;;;;;;;1.83;1.40;;;18.40;99.90;;;;;;5067248;28;20186;-68
2022/09/12 09:39:42;;;;;;;3.20;1.40;;;18.40;99.90;;;;;;5047548;28;20204;-68
2022/09/12 09:42:17;;;;;;;2.70;1.50;;;18.40;99.90;;;;;;5051532;28;20212;-68
2022/09/12 09:44:46;;;;;;;2.00;1.37;;;18.50;99.90;;;;;;5027865;28;20303;-73
2022/09/12 09:47:11;;;;;;;1.83;1.67;;;18.50;99.90;;;;;;5063527;28;20206;-73
2022/09/12 09:49:38;;;;;;;3.43;1.87;;;18.60;99.90;;;;;;5060157;28;20213;-72
2022/09/12 09:52:07;;;;;;;1.57;1.27;;;18.70;99.90;;;;;;5058404;28;20283;-70
2022/09/12 09:54:40;;;;;;;2.10;1.63;;;19.00;99.90;;;;;;5062348;28;20302;-71
2022/09/12 09:57:33;;;;;;;1.70;1.60;;;19.10;99.90;;;;;;5058998;28;20191;-72
2022/09/12 10:00:26;;;;;;;1.60;1.23;;;19.30;99.90;;;;;;5058521;28;20315;-73
2022/09/12 10:03:02;;;;;;;1.20;1.10;;;19.30;99.90;;;;;;5057316;28;20196;-72
2022/09/12 10:05:28;;;;;;;0.93;0.90;;;19.30;99.90;;;;;;5056510;28;20339;-67
2022/09/12 10:07:54;;;;;;;1.77;1.23;;;19.30;99.90;;;;;;5056795;28;20205;-72
2022/09/12 10:10:22;;;;;;;0.90;0.90;;;19.30;99.90;;;;;;5053597;28;20217;-72
2022/09/12 10:12:48;;;;;;;1.57;1.00;;;19.40;99.90;;;;;;5056121;28;20230;-70
2022/09/12 10:15:20;;;;;;;0.70;0.70;;;19.50;99.90;;;;;;5050387;28;20249;-71
2022/09/12 10:17:49;;;;;;;1.20;1.03;;;19.50;99.90;;;;;;5060465;28;20196;-78
2022/09/12 10:20:31;;;;;;;1.37;1.10;;;19.40;99.90;;;;;;5054553;28;20223;-69
2022/09/12 10:23:06;;;;;;;1.67;1.07;;;19.50;99.90;;;;;;5061604;28;20192;-70
2022/09/12 10:25:32;;;;;;;1.10;1.00;;;19.60;99.90;;;;;;5053864;28;20188;-70
2022/09/12 10:27:59;;;;;;;0.90;0.90;;;19.80;99.90;;;;;;5057376;28;20707;-72
2022/09/12 10:30:27;;;;;;;0.83;0.83;;;19.70;99.90;;;;;;5045148;28;20206;-71
2022/09/12 10:32:55;;;;;;;1.53;1.00;;;19.50;99.90;;;;;;5060330;28;20233;-70
2022/09/12 10:35:41;;;;;;;1.53;1.43;;;19.30;99.90;;;;;;5055177;28;20225;-71
2022/09/12 10:38:15;;;;;;;2.40;1.37;;;19.50;99.90;;;;;;5048265;28;20192;-69
2022/09/12 10:40:42;;;;;;;1.13;1.03;;;19.50;99.90;;;;;;5057545;28;20651;-69
2022/09/12 10:43:32;;;;;;;1.07;1.07;;;19.80;99.90;;;;;;5051251;28;20670;-68
2022/09/12 10:46:18;;;;;;;0.80;0.80;;;20.20;99.90;;;;;;5051016;28;20191;-69
2022/09/12 10:48:49;;;;;;;1.70;1.13;;;20.40;99.90;;;;;;5052749;28;20679;-78
2022/09/12 10:51:23;;;;;;;1.70;1.30;;;20.60;99.90;;;;;;5049106;28;20236;-68
2022/09/12 10:53:55;;;;;;;1.20;0.90;;;20.70;99.90;;;;;;5049717;28;20258;-68
2022/09/12 10:56:23;;;;;;;1.13;1.03;;;21.10;99.90;;;;;;5060295;28;20182;-67
2022/09/12 10:58:57;;;;;;;1.23;1.10;;;21.20;99.90;;;;;;5052782;28;20314;-67
2022/09/12 11:01:40;;;;;;;1.80;0.93;;;21.10;99.30;;;;;;5055849;28;20174;-67
2022/09/12 11:04:15;;;;;;;1.30;1.20;;;20.90;99.60;;;;;;5053818;28;20213;-67
2022/09/12 11:06:51;;;;;;;2.47;1.40;;;21.10;99.40;;;;;;5053477;28;20193;-66
2022/09/12 11:09:34;;;;;;;2.63;1.03;;;21.30;99.40;;;;;;5060559;28;20244;-67
2022/09/12 11:12:19;;;;;;;3.30;1.33;;;21.20;98.90;;;;;;5060221;28;20556;-67
2022/09/12 11:14:56;;;;;;;3.10;1.83;;;21.20;99.10;;;;;;5063180;28;20245;-67
2022/09/12 11:17:50;;;;;;;1.10;1.10;;;21.40;98.60;;;;;;5059404;28;20201;-67
2022/09/12 11:20:45;;;;;;;0.70;0.70;;;21.60;98.50;;;;;;5051265;28;20788;-71
2022/09/12 11:23:46;;;;;;;2.67;1.20;;;21.90;98.50;;;;;;5050086;28;20213;-66
2022/09/12 11:26:39;;;;;;;1.43;1.33;;;22.30;97.30;;;;;;5065242;28;20184;-66
2022/09/12 11:29:25;;;;;;;1.80;1.30;;;22.70;97.10;;;;;;5062947;28;20248;-70
2022/09/12 11:32:09;;;;;;;0.90;0.90;;;22.90;95.90;;;;;;5062805;28;20192;-67
2022/09/12 11:34:46;;;;;;;1.30;1.20;;;22.70;95.70;;;;;;5054034;28;20209;-67
2022/09/12 11:37:54;;;;;;;1.07;0.97;;;22.50;95.70;;;;;;5061516;28;20190;-67
2022/09/12 11:40:48;;;;;;;1.37;1.27;;;22.30;96.00;;;;;;5044417;28;20198;-68
2022/09/12 11:43:23;;;;;;;1.50;1.20;;;21.90;97.00;;;;;;5053055;28;20193;-67
2022/09/12 11:45:50;;;;;;;1.33;1.23;;;22.00;96.60;;;;;;5045023;28;20632;-66
2022/09/12 11:48:40;;;;;;;1.40;1.23;;;21.60;96.90;;;;;;5061704;28;20190;-66
2022/09/12 11:51:18;;;;;;;1.37;1.20;;;21.20;95.80;;;;;;5043438;28;20702;-68
2022/09/12 11:53:53;;;;;;;2.17;1.10;;;21.20;96.40;;;;;;5034075;28;20617;-68
2022/09/12 11:56:19;;;;;;;1.47;1.37;;;21.30;96.40;;;;;;5052847;28;20200;-68
2022/09/12 11:59:00;;;;;;;1.27;1.17;;;21.50;97.80;;;;;;5052511;28;20696;-64
2022/09/12 12:01:34;;;;;;;1.20;1.07;;;21.70;97.80;;;;;;5055309;28;20195;-78
2022/09/12 12:04:02;;;;;;;1.33;1.00;;;21.80;97.60;;;;;;5049785;28;20217;-78
2022/09/12 12:06:54;;;;;;;2.23;1.20;;;22.00;97.40;;;;;;5053800;28;20274;-71
2022/09/12 12:09:20;;;;;;;1.00;1.00;;;22.30;97.50;;;;;;5057588;28;20723;-66
2022/09/12 12:11:53;;;;;;;1.00;1.00;;;22.50;96.20;;;;;;5059419;28;20289;-67
2022/09/12 12:14:28;;;;;;;1.20;0.90;;;22.60;95.70;;;;;;5050967;28;20592;-66
2022/09/12 12:16:53;;;;;;;2.10;1.30;;;23.00;95.50;;;;;;5054242;28;20207;-68
2022/09/12 12:19:36;;;;;;;1.00;1.00;;;23.40;93.80;;;;;;5050175;28;20844;-66
2022/09/12 12:22:19;;;;;;;2.17;1.00;;;23.70;94.20;;;;;;5052457;28;20186;-68
2022/09/12 12:25:20;;;;;;;2.30;1.00;;;23.70;92.20;;;;;;5050784;28;20225;-68
2022/09/12 12:27:50;;;;;;;3.33;1.27;;;23.10;92.00;;;;;;5053296;28;20244;-69
2022/09/12 12:30:28;;;;;;;2.73;1.03;;;22.90;92.30;;;;;;5044781;28;20571;-67
2022/09/12 12:33:01;;;;;;;2.07;1.23;;;23.20;92.50;;;;;;5049008;28;20206;-70
2022/09/12 12:35:37;;;;;;;1.10;0.97;;;23.60;91.70;;;;;;5057179;28;20226;-69
2022/09/12 12:38:04;;;;;;;1.43;1.23;;;23.50;91.40;;;;;;5056628;28;20206;-73
2022/09/12 12:40:30;;;;;;;1.00;1.00;;;23.60;91.40;;;;;;5060156;28;20279;-71
2022/09/12 12:42:57;;;;;;;1.00;0.97;;;23.60;91.70;;;;;;5049530;28;20191;-71
2022/09/12 12:45:25;;;;;;;4.20;1.03;;;23.80;91.40;;;;;;5061880;28;20297;-67
2022/09/12 12:47:55;;;;;;;2.70;1.73;;;24.00;90.70;;;;;;5052678;28;20631;-68
2022/09/12 12:50:25;;;;;;;1.05;1.05;;;24.10;89.80;;;;;;5060888;28;20202;-68
2022/09/12 12:53:06;;;;;;;1.30;1.20;;;23.70;90.20;;;;;;5058743;28;20742;-73
2022/09/12 12:55:47;;;;;;;1.63;1.05;;;23.70;89.80;;;;;;5062159;28;20221;-64
2022/09/12 12:58:35;;;;;;;1.75;0.93;;;23.90;90.20;;;;;;5060451;28;20178;-66
2022/09/12 13:01:12;;;;;;;0.75;0.75;;;23.90;87.20;;;;;;5060512;28;20341;-65
2022/09/12 13:03:43;;;;;;;0.70;0.70;;;23.60;87.60;;;;;;5059391;28;20234;-64
2022/09/12 13:06:27;;;;;;;1.15;1.05;;;23.50;87.70;;;;;;5046111;28;20191;-65
2022/09/12 13:08:59;;;;;;;0.50;0.50;;;23.70;85.90;;;;;;5058290;28;20337;-65
2022/09/12 13:11:34;;;;;;;1.10;0.90;;;24.00;85.60;;;;;;5056671;28;20505;-65